AIZ237 LLBG-LYTV
Flight info
| Callsign | AIZ237 |
|---|---|
| Flight time | N/A |
| Altitude | 34000 |
| Route | SUVAS L53 ANIDE UL53 TIPAS UN137 SKP UL617 BAMOS DCT KOGIS DCT BITLA DCT MAVAR Y400 RETRA L604 POD |
| Aircraft | A21N/M-SDE2E3FGHIRWXY/LB1 |
Departure
| Time | 2026-05-08 07:47 |
|---|---|
| Airport | Ben Gurion International Airport (LLBG) |
Arrival
| Time | N/A |
|---|---|
| Airport | Tivat Airport (LYTV) |
| Time | Latitude | Longitude | Altitude | Speed | Heading |
|---|---|---|---|---|---|
| 2026-05-08 07:30 | 32.00599 | 34.87493 | 119 ft | 0 kts | 243° |
| 2026-05-08 07:30 | 32.00603 | 34.87501 | 119 ft | 0 kts | 243° |
| 2026-05-08 07:40 | 32.00604 | 34.87502 | 123 ft | 2 kts | 243° |
| 2026-05-08 07:40 | 32.00615 | 34.87530 | 119 ft | 4 kts | 244° |
| 2026-05-08 07:40 | 32.00625 | 34.87553 | 118 ft | 4 kts | 233° |
| 2026-05-08 07:41 | 32.00643 | 34.87569 | 119 ft | 4 kts | 174° |
| 2026-05-08 07:41 | 32.00660 | 34.87559 | 120 ft | 2 kts | 120° |
| 2026-05-08 07:41 | 32.00651 | 34.87576 | 119 ft | 4 kts | 122° |
| 2026-05-08 07:41 | 32.00636 | 34.87602 | 121 ft | 4 kts | 122° |
| 2026-05-08 07:42 | 32.00628 | 34.87619 | 122 ft | 1 kts | 121° |
| 2026-05-08 07:44 | 32.00622 | 34.87630 | 122 ft | 10 kts | 121° |
| 2026-05-08 07:44 | 32.00556 | 34.87758 | 123 ft | 21 kts | 122° |
| 2026-05-08 07:44 | 32.00558 | 34.87895 | 121 ft | 18 kts | 40° |
| 2026-05-08 07:44 | 32.00669 | 34.87977 | 120 ft | 21 kts | 31° |
| 2026-05-08 07:45 | 32.00833 | 34.88096 | 120 ft | 29 kts | 30° |
| 2026-05-08 07:45 | 32.01028 | 34.88237 | 120 ft | 45 kts | 31° |
| 2026-05-08 07:45 | 32.01294 | 34.88440 | 120 ft | 45 kts | 45° |
| 2026-05-08 07:45 | 32.01473 | 34.88751 | 121 ft | 47 kts | 71° |
| 2026-05-08 07:46 | 32.01536 | 34.89108 | 122 ft | 39 kts | 79° |
| 2026-05-08 07:46 | 32.01612 | 34.89263 | 123 ft | 17 kts | 4° |
| 2026-05-08 07:46 | 32.01734 | 34.89245 | 118 ft | 11 kts | 353° |
| 2026-05-08 07:46 | 32.01767 | 34.89226 | 117 ft | 1 kts | 286° |
| 2026-05-08 07:47 | 32.01763 | 34.89205 | 118 ft | 18 kts | 259° |
| 2026-05-08 07:47 | 32.01690 | 34.88724 | 122 ft | 100 kts | 259° |
| 2026-05-08 07:47 | 32.01517 | 34.87591 | 209 ft | 168 kts | 262° |
| 2026-05-08 07:47 | 32.01309 | 34.86251 | 1073 ft | 166 kts | 262° |
| 2026-05-08 07:48 | 32.01010 | 34.84937 | 2093 ft | 167 kts | 257° |
| 2026-05-08 07:48 | 32.00728 | 34.83595 | 3168 ft | 172 kts | 258° |
| 2026-05-08 07:48 | 32.00454 | 34.82160 | 4103 ft | 192 kts | 256° |
| 2026-05-08 07:48 | 32.00129 | 34.80512 | 4615 ft | 224 kts | 255° |
| 2026-05-08 07:49 | 31.99749 | 34.78639 | 5308 ft | 245 kts | 254° |
| 2026-05-08 07:49 | 31.99344 | 34.76636 | 6137 ft | 260 kts | 254° |
| 2026-05-08 07:49 | 31.99195 | 34.74459 | 7084 ft | 276 kts | 278° |
| 2026-05-08 07:49 | 31.99772 | 34.72290 | 8360 ft | 277 kts | 289° |
| 2026-05-08 07:50 | 32.00481 | 34.70178 | 9695 ft | 278 kts | 291° |
| 2026-05-08 07:50 | 32.01205 | 34.68031 | 10753 ft | 290 kts | 291° |
| 2026-05-08 07:50 | 32.01961 | 34.65722 | 11408 ft | 313 kts | 290° |
| 2026-05-08 07:50 | 32.02724 | 34.63271 | 12338 ft | 324 kts | 285° |
| 2026-05-08 07:51 | 32.02956 | 34.60599 | 13365 ft | 332 kts | 275° |
| 2026-05-08 07:51 | 32.03386 | 34.57913 | 14352 ft | 336 kts | 286° |
| 2026-05-08 07:51 | 32.03998 | 34.55272 | 15308 ft | 341 kts | 287° |
| 2026-05-08 07:51 | 32.04652 | 34.52565 | 16283 ft | 345 kts | 287° |
| 2026-05-08 07:52 | 32.05311 | 34.49823 | 17267 ft | 350 kts | 286° |
| 2026-05-08 07:52 | 32.05969 | 34.47046 | 18248 ft | 354 kts | 286° |
| 2026-05-08 07:52 | 32.06627 | 34.44235 | 19110 ft | 358 kts | 286° |
| 2026-05-08 07:52 | 32.07292 | 34.41378 | 19949 ft | 363 kts | 286° |
| 2026-05-08 07:53 | 32.07960 | 34.38494 | 20759 ft | 367 kts | 286° |
| 2026-05-08 07:53 | 32.08634 | 34.35576 | 21570 ft | 371 kts | 286° |
| 2026-05-08 07:53 | 32.09315 | 34.32622 | 22363 ft | 375 kts | 286° |
| 2026-05-08 07:53 | 32.10002 | 34.29641 | 23162 ft | 379 kts | 286° |
| 2026-05-08 07:54 | 32.10696 | 34.26623 | 23898 ft | 383 kts | 287° |
| 2026-05-08 07:54 | 32.11397 | 34.23567 | 24549 ft | 387 kts | 287° |
| 2026-05-08 07:54 | 32.12103 | 34.20488 | 25213 ft | 389 kts | 288° |
| 2026-05-08 07:54 | 32.12808 | 34.17406 | 25919 ft | 390 kts | 289° |
| 2026-05-08 07:55 | 32.13509 | 34.14345 | 26539 ft | 392 kts | 289° |
| 2026-05-08 07:55 | 32.14223 | 34.11221 | 27130 ft | 395 kts | 290° |
| 2026-05-08 07:55 | 32.14940 | 34.08083 | 27691 ft | 397 kts | 290° |
| 2026-05-08 07:55 | 32.15661 | 34.04923 | 28239 ft | 400 kts | 291° |
| 2026-05-08 07:56 | 32.16385 | 34.01742 | 28782 ft | 402 kts | 291° |
| 2026-05-08 07:56 | 32.17129 | 33.98547 | 29315 ft | 401 kts | 296° |
| 2026-05-08 07:56 | 32.18187 | 33.95509 | 29846 ft | 399 kts | 301° |
| 2026-05-08 07:56 | 32.19405 | 33.92573 | 30461 ft | 395 kts | 303° |
| 2026-05-08 07:57 | 32.20673 | 33.89703 | 31025 ft | 393 kts | 304° |
| 2026-05-08 07:57 | 32.21938 | 33.86861 | 31675 ft | 389 kts | 304° |
| 2026-05-08 07:57 | 32.23173 | 33.84039 | 32345 ft | 384 kts | 304° |
| 2026-05-08 07:57 | 32.24371 | 33.81240 | 33017 ft | 380 kts | 304° |
| 2026-05-08 07:58 | 32.25544 | 33.78451 | 33650 ft | 376 kts | 303° |
| 2026-05-08 07:58 | 32.26694 | 33.75683 | 34053 ft | 376 kts | 303° |
| 2026-05-08 07:58 | 32.27837 | 33.72916 | 34128 ft | 374 kts | 303° |
| 2026-05-08 07:59 | 32.30093 | 33.67426 | 34127 ft | 374 kts | 303° |
| 2026-05-08 07:59 | 32.32367 | 33.61886 | 34137 ft | 379 kts | 303° |
| 2026-05-08 08:00 | 32.34735 | 33.56141 | 34147 ft | 396 kts | 302° |
| 2026-05-08 08:00 | 32.37133 | 33.50268 | 34137 ft | 396 kts | 302° |
| 2026-05-08 08:01 | 32.39525 | 33.44399 | 34138 ft | 396 kts | 302° |
| 2026-05-08 08:01 | 32.41902 | 33.38569 | 34139 ft | 396 kts | 302° |
| 2026-05-08 08:02 | 32.44299 | 33.32686 | 34138 ft | 396 kts | 302° |
| 2026-05-08 08:02 | 32.46688 | 33.26812 | 34137 ft | 396 kts | 302° |
| 2026-05-08 08:03 | 32.49076 | 33.20930 | 34140 ft | 396 kts | 302° |
| 2026-05-08 08:03 | 32.51461 | 33.15046 | 34132 ft | 396 kts | 302° |
| 2026-05-08 08:04 | 32.53827 | 33.09197 | 34140 ft | 396 kts | 302° |
| 2026-05-08 08:04 | 32.56208 | 33.03303 | 34141 ft | 396 kts | 302° |
| 2026-05-08 08:05 | 32.58586 | 32.97406 | 34141 ft | 396 kts | 302° |
| 2026-05-08 08:05 | 32.60960 | 32.91509 | 34144 ft | 396 kts | 302° |
| 2026-05-08 08:06 | 32.63333 | 32.85605 | 34142 ft | 397 kts | 301° |
| 2026-05-08 08:06 | 32.65710 | 32.79682 | 34148 ft | 397 kts | 301° |
| 2026-05-08 08:07 | 32.68078 | 32.73768 | 34145 ft | 397 kts | 301° |
| 2026-05-08 08:07 | 32.70449 | 32.67838 | 34150 ft | 397 kts | 301° |
| 2026-05-08 08:08 | 32.72795 | 32.61960 | 34150 ft | 397 kts | 301° |
| 2026-05-08 08:08 | 32.75162 | 32.56019 | 34148 ft | 398 kts | 301° |
| 2026-05-08 08:09 | 32.77531 | 32.50065 | 34153 ft | 398 kts | 301° |
| 2026-05-08 08:09 | 32.79896 | 32.44108 | 34154 ft | 398 kts | 301° |
| 2026-05-08 08:10 | 32.82413 | 32.38270 | 34162 ft | 394 kts | 306° |
| 2026-05-08 08:10 | 32.85445 | 32.32846 | 34160 ft | 393 kts | 309° |
| 2026-05-08 08:11 | 32.88588 | 32.27585 | 34156 ft | 393 kts | 309° |
| 2026-05-08 08:11 | 32.91730 | 32.22267 | 34146 ft | 393 kts | 308° |
| 2026-05-08 08:12 | 32.94842 | 32.16908 | 34158 ft | 393 kts | 308° |
| 2026-05-08 08:12 | 32.97937 | 32.11537 | 34158 ft | 393 kts | 308° |
| 2026-05-08 08:13 | 33.01033 | 32.06154 | 34156 ft | 393 kts | 308° |
| 2026-05-08 08:13 | 33.04118 | 32.00783 | 34154 ft | 392 kts | 308° |
| 2026-05-08 08:14 | 33.07196 | 31.95422 | 34158 ft | 391 kts | 308° |
| 2026-05-08 08:14 | 33.10251 | 31.90093 | 34162 ft | 391 kts | 308° |
| 2026-05-08 08:15 | 33.13323 | 31.84727 | 34163 ft | 392 kts | 308° |
| 2026-05-08 08:15 | 33.16393 | 31.79356 | 34155 ft | 392 kts | 308° |
| 2026-05-08 08:16 | 33.19468 | 31.73970 | 34161 ft | 392 kts | 308° |
| 2026-05-08 08:16 | 33.22542 | 31.68576 | 34164 ft | 393 kts | 308° |
| 2026-05-08 08:17 | 33.25614 | 31.63177 | 34166 ft | 393 kts | 307° |
| 2026-05-08 08:17 | 33.28664 | 31.57809 | 34165 ft | 393 kts | 307° |
| 2026-05-08 08:18 | 33.31736 | 31.52395 | 34165 ft | 393 kts | 307° |
| 2026-05-08 08:18 | 33.34811 | 31.46971 | 34165 ft | 394 kts | 307° |
| 2026-05-08 08:19 | 33.37884 | 31.41539 | 34162 ft | 394 kts | 307° |
| 2026-05-08 08:19 | 33.40936 | 31.36134 | 34165 ft | 394 kts | 307° |
| 2026-05-08 08:20 | 33.44005 | 31.30693 | 34165 ft | 394 kts | 307° |
| 2026-05-08 08:20 | 33.47077 | 31.25240 | 34174 ft | 394 kts | 307° |
| 2026-05-08 08:21 | 33.50145 | 31.19786 | 34162 ft | 395 kts | 306° |
| 2026-05-08 08:21 | 33.53212 | 31.14325 | 34162 ft | 395 kts | 306° |
| 2026-05-08 08:22 | 33.56278 | 31.08856 | 34162 ft | 395 kts | 306° |
| 2026-05-08 08:22 | 33.59339 | 31.03390 | 34165 ft | 395 kts | 306° |
| 2026-05-08 08:23 | 33.62381 | 30.97949 | 34165 ft | 395 kts | 306° |
| 2026-05-08 08:23 | 33.65439 | 30.92471 | 34164 ft | 396 kts | 306° |
| 2026-05-08 08:24 | 33.68501 | 30.86979 | 34165 ft | 396 kts | 306° |
| 2026-05-08 08:24 | 33.71561 | 30.81479 | 34165 ft | 396 kts | 306° |
| 2026-05-08 08:25 | 33.74621 | 30.75974 | 34164 ft | 396 kts | 306° |
| 2026-05-08 08:25 | 33.77659 | 30.70498 | 34168 ft | 396 kts | 306° |
| 2026-05-08 08:26 | 33.80709 | 30.64992 | 34166 ft | 396 kts | 306° |
| 2026-05-08 08:26 | 33.83526 | 30.59901 | 34165 ft | 396 kts | 306° |
| 2026-05-08 08:27 | 33.86576 | 30.54380 | 34165 ft | 396 kts | 306° |
| 2026-05-08 08:27 | 33.89622 | 30.48858 | 34167 ft | 396 kts | 306° |
| 2026-05-08 08:28 | 33.92666 | 30.43331 | 34172 ft | 396 kts | 306° |
| 2026-05-08 08:28 | 33.95686 | 30.37840 | 34165 ft | 395 kts | 306° |
| 2026-05-08 08:29 | 33.98722 | 30.32311 | 34168 ft | 395 kts | 305° |
| 2026-05-08 08:29 | 34.01754 | 30.26780 | 34165 ft | 395 kts | 305° |
| 2026-05-08 08:30 | 34.04783 | 30.21247 | 34167 ft | 395 kts | 305° |
| 2026-05-08 08:30 | 34.09320 | 30.12943 | 34170 ft | 395 kts | 305° |
| 2026-05-08 08:31 | 34.12347 | 30.07393 | 34167 ft | 396 kts | 305° |
| 2026-05-08 08:31 | 34.15353 | 30.01872 | 34165 ft | 396 kts | 305° |
| 2026-05-08 08:32 | 34.18532 | 29.96449 | 34164 ft | 395 kts | 308° |
| 2026-05-08 08:32 | 34.21902 | 29.91200 | 34164 ft | 395 kts | 309° |
| 2026-05-08 08:33 | 34.25294 | 29.85965 | 34165 ft | 395 kts | 309° |
| 2026-05-08 08:33 | 34.28093 | 29.81600 | 34159 ft | 395 kts | 308° |
| 2026-05-08 08:34 | 34.32001 | 29.75452 | 34169 ft | 396 kts | 308° |
| 2026-05-08 08:34 | 34.34794 | 29.71044 | 34178 ft | 396 kts | 308° |
| 2026-05-08 08:35 | 34.38130 | 29.65771 | 34167 ft | 394 kts | 308° |
| 2026-05-08 08:35 | 34.41465 | 29.60494 | 34168 ft | 394 kts | 308° |
| 2026-05-08 08:36 | 34.44792 | 29.55224 | 34170 ft | 394 kts | 308° |
| 2026-05-08 08:36 | 34.48120 | 29.49945 | 34170 ft | 394 kts | 308° |
| 2026-05-08 08:37 | 34.51450 | 29.44654 | 34167 ft | 395 kts | 308° |
| 2026-05-08 08:37 | 34.54781 | 29.39353 | 34167 ft | 395 kts | 308° |
| 2026-05-08 08:38 | 34.58113 | 29.34043 | 34167 ft | 395 kts | 308° |
| 2026-05-08 08:38 | 34.61417 | 29.28769 | 34170 ft | 395 kts | 308° |
| 2026-05-08 08:39 | 34.64741 | 29.23457 | 34169 ft | 395 kts | 308° |
| 2026-05-08 08:39 | 34.68064 | 29.18139 | 34167 ft | 395 kts | 308° |
| 2026-05-08 08:40 | 34.71389 | 29.12808 | 34164 ft | 395 kts | 308° |
| 2026-05-08 08:40 | 34.74704 | 29.07484 | 34166 ft | 395 kts | 308° |
| 2026-05-08 08:41 | 34.78019 | 29.02154 | 34166 ft | 395 kts | 308° |
| 2026-05-08 08:41 | 34.81330 | 28.96822 | 34170 ft | 395 kts | 308° |
| 2026-05-08 08:42 | 34.84617 | 28.91521 | 34172 ft | 395 kts | 307° |
| 2026-05-08 08:42 | 34.87934 | 28.86163 | 34167 ft | 395 kts | 307° |
| 2026-05-08 08:43 | 34.91253 | 28.80793 | 34164 ft | 395 kts | 307° |
| 2026-05-08 08:43 | 34.94540 | 28.75469 | 34164 ft | 395 kts | 307° |
| 2026-05-08 08:44 | 34.97844 | 28.70108 | 34164 ft | 395 kts | 307° |
| 2026-05-08 08:44 | 35.01142 | 28.64730 | 34162 ft | 395 kts | 306° |
| 2026-05-08 08:45 | 35.04160 | 28.59107 | 34164 ft | 396 kts | 302° |
| 2026-05-08 08:45 | 35.06978 | 28.53376 | 34164 ft | 396 kts | 302° |
| 2026-05-08 08:46 | 35.09798 | 28.47591 | 34164 ft | 396 kts | 302° |
| 2026-05-08 08:46 | 35.12637 | 28.41820 | 34182 ft | 396 kts | 302° |
| 2026-05-08 08:47 | 35.15477 | 28.36074 | 34164 ft | 395 kts | 302° |
| 2026-05-08 08:47 | 35.18316 | 28.30325 | 34168 ft | 395 kts | 302° |
| 2026-05-08 08:48 | 35.21147 | 28.24579 | 34171 ft | 395 kts | 302° |
| 2026-05-08 08:48 | 35.23985 | 28.18809 | 34166 ft | 395 kts | 302° |
| 2026-05-08 08:49 | 35.26796 | 28.13084 | 34172 ft | 395 kts | 302° |
| 2026-05-08 08:49 | 35.29624 | 28.07313 | 34169 ft | 395 kts | 302° |
| 2026-05-08 08:50 | 35.32450 | 28.01540 | 34174 ft | 394 kts | 301° |
| 2026-05-08 08:50 | 35.35265 | 27.95777 | 34170 ft | 394 kts | 301° |
| 2026-05-08 08:51 | 35.38082 | 27.90002 | 34172 ft | 394 kts | 301° |
| 2026-05-08 08:51 | 35.40891 | 27.84232 | 34169 ft | 394 kts | 301° |
| 2026-05-08 08:52 | 35.43680 | 27.78493 | 34170 ft | 394 kts | 301° |
| 2026-05-08 08:52 | 35.46487 | 27.72711 | 34170 ft | 394 kts | 301° |
| 2026-05-08 08:53 | 35.49289 | 27.66926 | 34167 ft | 394 kts | 301° |
| 2026-05-08 08:53 | 35.52091 | 27.61133 | 34169 ft | 394 kts | 301° |
| 2026-05-08 08:54 | 35.54888 | 27.55338 | 34167 ft | 394 kts | 301° |
| 2026-05-08 08:54 | 35.57686 | 27.49534 | 34167 ft | 394 kts | 301° |
| 2026-05-08 08:55 | 35.60479 | 27.43733 | 34171 ft | 394 kts | 300° |
| 2026-05-08 08:55 | 35.63269 | 27.37924 | 34167 ft | 395 kts | 300° |
| 2026-05-08 08:56 | 35.66043 | 27.32139 | 34170 ft | 395 kts | 300° |
| 2026-05-08 08:56 | 35.68829 | 27.26319 | 34170 ft | 395 kts | 300° |
| 2026-05-08 08:57 | 35.71612 | 27.20495 | 34170 ft | 395 kts | 300° |
| 2026-05-08 08:57 | 35.74396 | 27.14662 | 34168 ft | 395 kts | 300° |
| 2026-05-08 08:58 | 35.77176 | 27.08825 | 34170 ft | 395 kts | 300° |
| 2026-05-08 08:58 | 35.79948 | 27.02994 | 34170 ft | 395 kts | 300° |
| 2026-05-08 08:59 | 35.82671 | 26.97172 | 34171 ft | 395 kts | 298° |
| 2026-05-08 08:59 | 35.85135 | 26.91117 | 34170 ft | 394 kts | 295° |
| 2026-05-08 09:00 | 35.87471 | 26.85000 | 34174 ft | 394 kts | 295° |
| 2026-05-08 09:00 | 35.89808 | 26.78881 | 34179 ft | 395 kts | 295° |
| 2026-05-08 09:01 | 35.91205 | 26.75971 | 34178 ft | 396 kts | 308° |
| 2026-05-08 09:01 | 35.93219 | 26.73639 | 34180 ft | 401 kts | 318° |
| 2026-05-08 09:01 | 35.97972 | 26.69924 | 34178 ft | 407 kts | 325° |
| 2026-05-08 09:02 | 36.02878 | 26.66445 | 34182 ft | 406 kts | 324° |
| 2026-05-08 09:02 | 36.07696 | 26.62794 | 34178 ft | 406 kts | 323° |
| 2026-05-08 09:03 | 36.12412 | 26.59040 | 34179 ft | 405 kts | 322° |
| 2026-05-08 09:03 | 36.17140 | 26.55219 | 34178 ft | 406 kts | 322° |
| 2026-05-08 09:04 | 36.21868 | 26.51394 | 34179 ft | 406 kts | 322° |
| 2026-05-08 09:04 | 36.26605 | 26.47567 | 34178 ft | 406 kts | 322° |
| 2026-05-08 09:05 | 36.31347 | 26.43735 | 34180 ft | 406 kts | 321° |
| 2026-05-08 09:05 | 36.36083 | 26.39903 | 34178 ft | 406 kts | 321° |
| 2026-05-08 09:06 | 36.40789 | 26.36088 | 34177 ft | 406 kts | 321° |
| 2026-05-08 09:06 | 36.45526 | 26.32243 | 34177 ft | 406 kts | 321° |
| 2026-05-08 09:07 | 36.50259 | 26.28395 | 34177 ft | 406 kts | 321° |
| 2026-05-08 09:07 | 36.54994 | 26.24541 | 34181 ft | 406 kts | 320° |
| 2026-05-08 09:08 | 36.59324 | 26.20206 | 34178 ft | 400 kts | 312° |
| 2026-05-08 09:08 | 36.63318 | 26.15328 | 34179 ft | 399 kts | 310° |
| 2026-05-08 09:09 | 36.67209 | 26.10449 | 34181 ft | 399 kts | 310° |
| 2026-05-08 09:09 | 36.71163 | 26.05576 | 34181 ft | 400 kts | 311° |
| 2026-05-08 09:10 | 36.75142 | 26.00731 | 34175 ft | 400 kts | 311° |
| 2026-05-08 09:10 | 36.79126 | 25.95890 | 34180 ft | 400 kts | 311° |
| 2026-05-08 09:11 | 36.83108 | 25.91045 | 34179 ft | 400 kts | 310° |
| 2026-05-08 09:11 | 36.87092 | 25.86184 | 34184 ft | 400 kts | 310° |
| 2026-05-08 09:12 | 36.91049 | 25.81346 | 34179 ft | 401 kts | 310° |
| 2026-05-08 09:12 | 36.95033 | 25.76469 | 34176 ft | 401 kts | 310° |
| 2026-05-08 09:13 | 36.99014 | 25.71588 | 34178 ft | 401 kts | 310° |
| 2026-05-08 09:13 | 37.02998 | 25.66695 | 34180 ft | 401 kts | 310° |
| 2026-05-08 09:14 | 37.06979 | 25.61801 | 34182 ft | 401 kts | 309° |
| 2026-05-08 09:14 | 37.10933 | 25.56931 | 34182 ft | 401 kts | 309° |
| 2026-05-08 09:15 | 37.14916 | 25.52016 | 34183 ft | 401 kts | 309° |
| 2026-05-08 09:15 | 37.18894 | 25.47100 | 34183 ft | 401 kts | 309° |
| 2026-05-08 09:16 | 37.22864 | 25.42177 | 34180 ft | 401 kts | 309° |
| 2026-05-08 09:16 | 37.26837 | 25.37245 | 34180 ft | 403 kts | 311° |
| 2026-05-08 09:17 | 37.31247 | 25.32797 | 34192 ft | 409 kts | 316° |
| 2026-05-08 09:17 | 37.35908 | 25.28727 | 34173 ft | 412 kts | 317° |